Latest Coastal Weather Observations for Hobart

IDT60701

Issued at 12:32 pm EDT Monday 20 February 2017 (issued every 10 minutes, with the page automatically refreshed every 10 minutes)

About coastal observations | Map of coastal stations | Coastal observations for TAS | Marine services | Other Formats
Station Details ID: 094029 Name: HOBART (ELLERSLIE ROAD) Lat: -42.89 Lon: 147.33 Height: 50.5 m
Data from the previous 72 hours. | See also: Recent months at Hobart
Date/Time
EDT
Temp
°C
Wind Pressure Rain since
9am
mm
Weather Cloud Vis
km
Sea
Height
m
Swell
Dir  Spd
kts
Gust
kts
hPa Trend Height
m
Period
s
Dir
20/12:30pm 16.6 SSW 11 15 1007.8 - 0.0 - - - - - - -
20/12:00pm 16.9 SSW 13 19 1007.8 - 0.0 - - - - - - -
20/11:30am 16.2 S 9 15 1008.0 - 0.0 - - - - - - -
20/11:00am 13.8 N 5 8 1008.3 - 0.0 - - - - - - -
20/10:30am 12.6 NNW 6 10 1008.4 - 0.0 - - - - - - -
20/10:00am 11.9 N 6 8 1008.5 - 0.0 - - - - - - -
20/09:30am 10.9 N 6 8 1008.2 - 0.0 - - - - - - -
20/09:00am 10.2 NNW 8 11 1008.0 - 0.6 - - - - - - -
20/08:30am 9.9 NNW 8 10 1007.9 - 0.6 - - - - - - -
20/08:00am 9.3 NNW 9 11 1007.6 - 0.6 - - - - - - -
20/07:30am 8.9 NNW 9 11 1007.6 - 0.6 - - - - - - -
20/07:00am 8.9 NW 8 11 1007.6 - 0.6 - - - - - - -
20/06:30am 8.8 NW 7 10 1007.2 - 0.6 - - - - - - -
20/06:00am 8.9 NW 8 10 1007.2 - 0.6 - - - - - - -
20/05:30am 9.0 NNW 10 13 1006.9 - 0.6 - - - - - - -
20/05:00am 9.2 NW 7 10 1006.7 - 0.6 - - - - - - -
20/04:30am 9.2 NNW 8 10 1006.7 - 0.6 - - - - - - -
20/04:00am 9.1 NW 5 6 1006.7 - 0.6 - - - - - - -
20/03:30am 9.0 NW 5 7 1006.7 - 0.6 - - - - - - -
20/03:00am 9.5 NNW 5 8 1006.9 - 0.6 - - - - - - -
20/02:30am 9.7 WNW 5 8 1006.8 - 0.6 - - - - - - -
20/02:00am 10.0 NNW 8 10 1006.6 - 0.6 - - - - - - -
20/01:30am 10.0 WNW 4 5 1006.2 - 0.6 - - - - - - -
20/01:00am 10.3 NW 3 5 1006.4 - 0.6 - - - - - - -
20/12:30am 10.9 NW 5 7 1006.4 - 0.6 - - - - - - -
20/12:00am 11.8 NNE 3 4 1006.2 - 0.6 - - - - - - -
 
Date/Time
EDT
Temp
°C
Wind Pressure Rain since
9am
mm
Weather Cloud Vis
km
Sea
Height
m
Swell
Dir  Spd
kts
Gust
kts
hPa Trend Height
m
Period
s
Dir
19/11:30pm 12.2 N 3 4 1006.3 - 0.6 - - - - - - -
19/11:00pm 12.5 W 4 6 1006.6 - 0.6 - - - - - - -
19/10:30pm 12.7 WSW 8 10 1006.6 - 0.6 - - - - - - -
19/10:00pm 13.4 WSW 6 11 1006.5 - 0.6 - - - - - - -
19/09:30pm 14.5 WSW 6 15 1006.3 - 0.6 - - - - - - -
19/09:00pm 14.6 SSW 7 11 1005.8 - 0.6 - - - - - - -
19/08:30pm 14.6 SW 9 11 1005.4 - 0.6 - - - - - - -
19/08:00pm 14.7 SSW 8 12 1004.7 - 0.6 - - - - - - -
19/07:30pm 15.1 S 8 11 1004.4 - 0.6 - - - - - - -
19/07:00pm 15.5 S 8 12 1004.3 - 0.6 - - - - - - -
19/06:30pm 16.1 SSE 8 12 1004.0 - 0.6 - - - - - - -
19/06:00pm 16.4 SE 9 13 1003.8 - 0.6 - - - - - - -
19/05:30pm 16.4 SE 11 15 1003.6 - 0.6 - - - - - - -
19/05:00pm 16.6 SE 10 12 1003.4 - 0.6 - - - - - - -
19/04:30pm 16.7 SE 11 16 1003.4 - 0.6 - - - - - - -
19/04:00pm 16.6 SE 11 15 1003.3 - 0.6 - - - - - - -
19/03:30pm 16.8 ESE 8 10 1003.4 - 0.6 - - - - - - -
19/03:00pm 15.6 SE 7 12 1003.8 - 0.4 - - - - - - -
19/02:30pm 14.7 ESE 7 9 1003.9 - 0.4 - - - - - - -
19/02:00pm 15.4 ESE 9 12 1003.9 - 0.4 - - - - - - -
19/01:30pm 14.4 SE 5 7 1003.9 - 0.4 - - - - - - -
19/01:00pm 13.2 SE 6 10 1004.1 - 0.4 - - - - - - -
19/12:30pm 12.0 NE 8 10 1004.5 - 0.4 - - - - - - -
19/12:00pm 13.5 N 7 9 1004.3 - 0.0 - - - - - - -
19/11:30am 15.1 NE 6 8 1004.1 - 0.0 - - - - - - -
19/11:00am 14.9 N 5 9 1004.1 - 0.0 - - - - - - -
19/10:30am 14.6 NNW 7 10 1003.9 - 0.0 - - - - - - -
19/10:00am 14.5 NNW 9 13 1003.7 - 0.0 - - - - - - -
19/09:30am 14.0 NW 9 13 1003.5 - 0.0 - - - - - - -
19/09:00am 12.3 NNW 8 11 1003.3 - 0.0 - - - - - - -
19/08:30am 13.0 NNW 5 7 1003.1 - 0.0 - - - - - - -
19/08:00am 11.2 N 5 8 1003.0 - 0.0 - - - - - - -
19/07:30am 10.4 N 7 10 1002.9 - 0.0 - - - - - - -
19/07:00am 10.4 NW 7 9 1002.7 - 0.0 - - - - - - -
19/06:30am 10.3 NNW 8 11 1002.4 - 0.0 - - - - - - -
19/06:00am 10.6 NNW 9 12 1002.1 - 0.0 - - - - - - -
19/05:30am 10.6 NNW 10 14 1002.0 - 0.0 - - - - - - -
19/05:00am 10.8 NNW 10 13 1002.1 - 0.0 - - - - - - -
19/04:30am 10.6 NNW 7 12 1002.1 - 0.0 - - - - - - -
19/04:00am 10.5 NNW 7 9 1002.3 - 0.0 - - - - - - -
19/03:30am 10.8 NW 5 7 1002.6 - 0.0 - - - - - - -
19/03:00am 11.0 NW 3 6 1003.0 - 0.0 - - - - - - -
19/02:30am 11.4 NNW 6 8 1003.2 - 0.0 - - - - - - -
19/02:00am 11.9 N 6 9 1003.5 - 0.0 - - - - - - -
19/01:30am 12.1 NNW 7 11 1003.8 - 0.0 - - - - - - -
19/01:00am 12.2 NW 7 10 1004.0 - 0.0 - - - - - - -
19/12:30am 12.2 NW 7 10 1004.3 - 0.0 - - - - - - -
19/12:00am 12.4 NW 7 10 1004.4 - 0.0 - - - - - - -
 
Date/Time
EDT
Temp
°C
Wind Pressure Rain since
9am
mm
Weather Cloud Vis
km
Sea
Height
m
Swell
Dir  Spd
kts
Gust
kts
hPa Trend Height
m
Period
s
Dir
18/11:30pm 12.9 NW 7 12 1004.7 - 0.0 - - - - - - -
18/11:00pm 13.2 NW 9 14 1005.0 - 0.0 - - - - - - -
18/10:30pm 13.4 NNW 8 12 1004.9 - 0.0 - - - - - - -
18/10:00pm 13.5 NNW 7 11 1005.3 - 0.0 - - - - - - -
18/09:30pm 13.5 N 6 8 1005.3 - 0.0 - - - - - - -
18/09:00pm 13.7 NW 7 10 1004.9 - 0.0 - - - - - - -
18/08:30pm 14.3 W 9 13 1004.6 - 0.0 - - - - - - -
18/08:00pm 14.9 WNW 7 13 1004.6 - 0.0 - - - - - - -
18/07:30pm 15.4 NW 8 14 1004.7 - 0.0 - - - - - - -
18/07:00pm 16.8 NW 9 15 1004.4 - 0.0 - - - - - - -
18/06:30pm 17.5 WNW 9 13 1004.1 - 0.0 - - - - - - -
18/06:00pm 18.1 WNW 8 17 1004.1 - 0.0 - - - - - - -
18/05:30pm 18.1 NW 13 21 1004.0 - 0.0 - - - - - - -
18/05:00pm 17.7 WNW 15 21 1004.2 - 0.0 - - - - - - -
18/04:30pm 18.9 WNW 12 17 1004.1 - 0.0 - - - - - - -
18/04:00pm 18.1 NW 10 14 1004.5 - 0.0 - - - - - - -
18/03:30pm 19.0 NW 7 11 1004.8 - 0.0 - - - - - - -
18/03:00pm 16.9 WNW 11 17 1005.1 - 0.0 - - - - - - -
18/02:30pm 17.7 N 10 16 1004.9 - 0.0 - - - - - - -
18/02:00pm 18.6 NW 13 21 1004.9 - 0.0 - - - - - - -
18/01:30pm 20.0 WNW 11 18 1005.0 - 0.0 - - - - - - -
18/01:00pm 18.5 NW 11 19 1005.4 - 0.0 - - - - - - -
18/12:30pm 16.8 WNW 6 10 1005.6 - 0.0 - - - - - - -
18/12:00pm 18.2 WNW 11 16 1005.7 - 0.0 - - - - - - -
18/11:30am 16.5 NW 12 18 1005.9 - 0.0 - - - - - - -
18/11:00am 16.3 NW 15 23 1006.0 - 0.0 - - - - - - -
18/10:30am 15.4 NNW 12 21 1006.0 - 0.0 - - - - - - -
18/10:00am 15.2 NNW 10 16 1006.1 - 0.0 - - - - - - -
18/09:30am 14.2 N 10 15 1006.2 - 0.0 - - - - - - -
18/09:00am 13.0 NNW 11 16 1006.3 - 0.0 - - - - - - -
18/08:30am 12.1 NNW 10 16 1006.1 - 0.0 - - - - - - -
18/08:00am 11.8 NNW 7 11 1006.1 - 0.0 - - - - - - -
18/07:30am 11.1 NNW 11 16 1005.5 - 0.0 - - - - - - -
18/07:00am 10.3 NW 7 11 1005.3 - 0.0 - - - - - - -
18/06:30am 10.2 N 6 10 1004.8 - 0.0 - - - - - - -
18/06:00am 10.7 N 11 15 1004.6 - 0.0 - - - - - - -
18/05:30am 10.9 NNW 13 19 1004.3 - 0.0 - - - - - - -
18/05:00am 11.1 NNW 12 17 1004.0 - 0.0 - - - - - - -
18/04:30am 11.2 N 10 15 1003.9 - 0.0 - - - - - - -
18/04:00am 11.2 NNW 10 14 1003.7 - 0.0 - - - - - - -
18/03:30am 11.5 NNW 12 16 1003.9 - 0.0 - - - - - - -
18/03:00am 11.6 NNW 11 15 1004.1 - 0.0 - - - - - - -
18/02:30am 11.9 NNW 11 16 1004.1 - 0.0 - - - - - - -
18/02:00am 12.3 NNW 9 13 1004.3 - 0.0 - - - - - - -
18/01:30am 12.6 NNW 10 17 1004.3 - 0.0 - - - - - - -
18/01:00am 12.7 N 8 11 1004.2 - 0.0 - - - - - - -
18/12:30am 13.1 NNW 9 13 1004.3 - 0.0 - - - - - - -
18/12:00am 12.8 NW 7 11 1004.5 - 0.0 - - - - - - -
 
Date/Time
EDT
Temp
°C
Wind Pressure Rain since
9am
mm
Weather Cloud Vis
km
Sea
Height
m
Swell
Dir  Spd
kts
Gust
kts
hPa Trend Height
m
Period
s
Dir
17/11:30pm 13.1 NW 6 10 1004.5 - 0.0 - - - - - - -
17/11:00pm 13.6 NNW 7 10 1004.4 - 0.0 - - - - - - -
17/10:30pm 14.1 NW 9 15 1004.1 - 0.0 - - - - - - -
17/10:00pm 15.1 NW 10 16 1004.2 - 0.0 - - - - - - -
17/09:30pm 15.2 NW 10 16 1003.7 - 0.0 - - - - - - -
17/09:00pm 15.4 NNW 10 14 1003.2 - 0.0 - - - - - - -
17/08:30pm 16.0 NNW 11 15 1002.9 - 0.0 - - - - - - -
17/08:00pm 16.4 NNW 11 16 1002.6 - 0.0 - - - - - - -
17/07:30pm 16.7 NNW 11 18 1002.1 - 0.0 - - - - - - -
17/07:00pm 17.7 SSW 4 10 1001.7 - 0.0 - - - - - - -
17/06:30pm 18.8 W 6 10 1001.3 - 0.0 - - - - - - -
17/06:00pm 20.7 NW 10 15 1000.9 - 0.0 - - - - - - -
17/05:30pm 22.1 WNW 11 15 1000.7 - 0.0 - - - - - - -
17/05:00pm 22.3 WNW 10 15 1000.1 - 0.0 - - - - - - -
17/04:30pm 22.3 WNW 14 20 999.7 - 0.0 - - - - - - -
17/04:05pm 22.2 NW 15 25 999.7 - 0.0 - - - - - - -
17/04:00pm 22.7 WNW 13 22 999.7 - 0.0 - - - - - - -
17/03:30pm 23.9 NW 16 24 999.6 - 0.0 - - - - - - -
17/03:00pm 22.3 NW 14 25 1000.1 - 0.0 - - - - - - -
17/02:31pm 23.9 NW 14 25 1000.2 - 0.0 - - - - - - -
17/02:30pm 23.7 NW 14 25 1000.2 - 0.0 - - - - - - -
17/02:28pm 23.5 NW 14 25 1000.2 - 0.0 - - - - - - -
17/02:00pm 21.8 NW 15 24 1000.6 - 0.0 - - - - - - -
17/01:30pm 20.8 NW 13 23 1000.9 - 0.0 - - - - - - -
17/01:00pm 21.6 NW 13 23 1001.1 - 0.0 - - - - - - -

Other Formats:

Comma delimited format used in spreadsheet applications
http://www.bom.gov.au/fwo/IDT60701/IDT60701.94970.axf

JavaScript Object Notation format (JSON) in row-major order
http://www.bom.gov.au/fwo/IDT60701/IDT60701.94970.json